createdAt,value
2022-08-05T00:01:36.135Z,26.53
2022-08-05T00:04:17.068Z,26.45
2022-08-05T00:06:45.039Z,26.48
2022-08-05T00:09:15.937Z,26.47
2022-08-05T00:11:49.168Z,26.45
2022-08-05T00:14:29.013Z,26.38
2022-08-05T00:16:57.172Z,26.38
2022-08-05T00:19:32.896Z,26.43
2022-08-05T00:22:01.627Z,26.45
2022-08-05T00:24:30.722Z,26.45
2022-08-05T00:27:00.030Z,26.42
2022-08-05T00:29:37.809Z,26.46
2022-08-05T00:32:12.114Z,26.45
2022-08-05T00:35:05.216Z,26.46
2022-08-05T00:37:35.583Z,26.43
2022-08-05T00:40:27.840Z,26.41
2022-08-05T00:42:57.420Z,26.38
2022-08-05T00:45:38.905Z,26.28
2022-08-05T00:48:31.671Z,26.25
2022-08-05T00:50:59.125Z,26.28
2022-08-05T00:54:00.792Z,26.22
2022-08-05T00:56:17.245Z,26.24
2022-08-05T00:58:50.404Z,26.17
2022-08-05T01:01:42.268Z,26.20
2022-08-05T01:04:13.547Z,26.14
2022-08-05T01:06:41.666Z,26.16
2022-08-05T01:09:14.053Z,26.15
2022-08-05T01:11:41.497Z,26.15
2022-08-05T01:14:15.566Z,26.07
2022-08-05T01:16:48.705Z,26.07
2022-08-05T01:19:46.255Z,25.99
2022-08-05T01:22:29.654Z,25.92
2022-08-05T01:25:24.115Z,25.88
2022-08-05T01:28:16.575Z,25.84
2022-08-05T01:30:46.544Z,25.87
2022-08-05T01:33:25.160Z,25.88
2022-08-05T01:35:55.303Z,25.79
2022-08-05T01:38:30.175Z,25.70
2022-08-05T01:41:00.074Z,25.80
2022-08-05T01:43:29.661Z,25.84
2022-08-05T01:45:57.673Z,25.68
2022-08-05T01:48:29.776Z,25.70
2022-08-05T01:51:00.157Z,25.68
2022-08-05T01:53:57.121Z,25.61
2022-08-05T01:58:10.811Z,25.51
2022-08-05T01:59:24.183Z,25.84
2022-08-05T02:01:54.753Z,25.99
2022-08-05T02:04:24.217Z,25.94
2022-08-05T02:06:53.433Z,26.08
2022-08-05T02:09:20.884Z,26.12
2022-08-05T02:11:59.075Z,26.00
2022-08-05T02:14:47.088Z,25.90
2022-08-05T02:18:32.173Z,25.93
2022-08-05T02:20:23.412Z,25.99
2022-08-05T02:22:56.066Z,25.75
2022-08-05T02:25:25.918Z,25.84
2022-08-05T02:27:58.335Z,25.88
2022-08-05T02:30:30.710Z,25.86
2022-08-05T02:32:59.836Z,26.10
2022-08-05T02:35:33.351Z,25.99
2022-08-05T02:38:06.186Z,25.75
2022-08-05T02:40:41.018Z,25.85
2022-08-05T02:43:10.903Z,25.84
2022-08-05T02:45:52.977Z,25.77
2022-08-05T02:48:29.053Z,25.62
2022-08-05T02:50:59.233Z,25.64
2022-08-05T02:53:27.795Z,25.66
2022-08-05T02:55:59.829Z,25.74
2022-08-05T02:58:28.959Z,25.74
2022-08-05T03:01:01.854Z,25.50
2022-08-05T03:03:34.237Z,25.55
2022-08-05T03:06:57.162Z,25.48
2022-08-05T03:09:11.348Z,25.54
2022-08-05T03:11:57.542Z,25.51
2022-08-05T03:14:26.329Z,25.48
2022-08-05T03:16:54.036Z,25.46
2022-08-05T03:19:33.863Z,25.70
2022-08-05T03:22:04.912Z,25.52
2022-08-05T03:24:50.893Z,25.50
2022-08-05T03:27:20.862Z,25.31
2022-08-05T03:30:07.439Z,25.28
2022-08-05T03:32:39.426Z,25.06
2022-08-05T03:35:09.018Z,25.15
2022-08-05T03:37:41.025Z,24.98
2022-08-05T03:40:33.346Z,25.08
2022-08-05T03:43:59.273Z,25.09
2022-08-05T03:45:57.596Z,25.55
2022-08-05T03:48:27.311Z,25.58
2022-08-05T03:52:35.082Z,25.53
2022-08-05T03:55:00.535Z,25.51
2022-08-05T03:56:50.089Z,25.40
2022-08-05T03:59:22.271Z,25.62
2022-08-05T04:01:59.013Z,25.53
2022-08-05T04:04:28.298Z,25.54
2022-08-05T04:06:59.172Z,25.55
2022-08-05T04:09:28.495Z,25.52
2022-08-05T04:11:59.228Z,25.29
2022-08-05T04:14:30.553Z,25.38
2022-08-05T04:16:59.294Z,25.51
2022-08-05T04:19:27.835Z,25.47
2022-08-05T04:22:10.216Z,25.45
2022-08-05T04:24:44.142Z,25.51
2022-08-05T04:27:12.991Z,25.45
2022-08-05T04:29:46.444Z,25.47
2022-08-05T04:32:30.996Z,25.76
2022-08-05T04:35:01.683Z,25.44
2022-08-05T04:38:02.126Z,25.55
2022-08-05T04:40:29.675Z,25.48
2022-08-05T04:43:00.404Z,25.62
2022-08-05T04:45:48.177Z,25.69
2022-08-05T04:48:27.198Z,25.69
2022-08-05T04:51:02.795Z,25.69
2022-08-05T04:53:41.861Z,25.77
2022-08-05T04:56:34.553Z,25.58
2022-08-05T04:59:24.324Z,25.74
2022-08-05T05:02:07.853Z,25.65
2022-08-05T05:04:51.597Z,25.67
2022-08-05T05:07:29.448Z,25.55
2022-08-05T05:10:06.761Z,25.59
2022-08-05T05:12:37.725Z,25.60
2022-08-05T05:15:10.816Z,25.84
2022-08-05T05:17:55.774Z,25.89
2022-08-05T05:20:28.549Z,25.97
2022-08-05T05:23:08.413Z,25.88
2022-08-05T05:25:47.862Z,25.97
2022-08-05T05:28:19.184Z,25.86
2022-08-05T05:30:51.075Z,25.80
2022-08-05T05:33:23.260Z,25.83
2022-08-05T05:35:53.515Z,25.96
2022-08-05T05:38:27.420Z,25.91
2022-08-05T05:40:58.397Z,25.91
2022-08-05T05:43:58.098Z,25.99
2022-08-05T05:46:21.775Z,26.08
2022-08-05T05:48:55.152Z,26.03
2022-08-05T05:51:27.850Z,26.07
2022-08-05T05:53:58.717Z,26.22
2022-08-05T05:56:33.234Z,26.31
2022-08-05T05:59:07.445Z,26.52
2022-08-05T06:01:40.035Z,26.54
2022-08-05T06:04:11.828Z,26.60
2022-08-05T06:06:41.814Z,26.88
2022-08-05T06:09:17.369Z,26.91
2022-08-05T06:12:01.120Z,26.85
2022-08-05T06:14:34.888Z,27.00
2022-08-05T06:17:22.076Z,27.23
2022-08-05T06:20:02.093Z,27.39
2022-08-05T06:22:33.781Z,27.67
2022-08-05T06:25:24.489Z,27.57
2022-08-05T06:28:10.447Z,27.65
2022-08-05T06:30:43.424Z,27.93
2022-08-05T06:33:19.003Z,28.03
2022-08-05T06:36:07.208Z,27.89
2022-08-05T06:38:46.924Z,28.20
2022-08-05T06:41:18.741Z,28.24
2022-08-05T06:44:00.727Z,28.21
2022-08-05T06:46:31.141Z,28.25
2022-08-05T06:49:05.741Z,28.54
2022-08-05T06:51:40.868Z,28.53
2022-08-05T06:54:08.593Z,28.48
2022-08-05T06:56:42.702Z,28.38
2022-08-05T06:59:25.158Z,28.68
2022-08-05T07:02:01.435Z,29.03
2022-08-05T07:04:38.304Z,29.11
2022-08-05T07:07:07.880Z,29.31
2022-08-05T07:09:40.559Z,29.10
2022-08-05T07:12:14.384Z,29.40
2022-08-05T07:14:41.544Z,29.71
2022-08-05T07:17:56.503Z,30.02
2022-08-05T07:20:32.478Z,30.19
2022-08-05T07:22:55.915Z,30.06
2022-08-05T07:25:55.174Z,30.29
2022-08-05T07:28:17.488Z,30.19
2022-08-05T07:30:44.889Z,30.34
2022-08-05T07:33:20.673Z,30.71
2022-08-05T07:36:20.825Z,30.68
2022-08-05T07:38:54.785Z,30.82
2022-08-05T07:42:14.193Z,30.92
2022-08-05T07:44:19.676Z,31.17
2022-08-05T07:46:53.457Z,30.80
2022-08-05T07:49:21.231Z,30.68
2022-08-05T07:51:54.641Z,30.81
2022-08-05T07:54:30.348Z,31.08
2022-08-05T07:57:17.982Z,31.34
2022-08-05T07:59:50.928Z,31.22
2022-08-05T08:02:18.745Z,31.31
2022-08-05T08:04:49.905Z,31.04
2022-08-05T08:07:22.224Z,31.10
2022-08-05T08:09:52.462Z,31.02
2022-08-05T08:12:37.115Z,31.14
2022-08-05T08:15:15.716Z,31.14
2022-08-05T08:17:49.663Z,31.49
2022-08-05T08:20:45.293Z,31.69
2022-08-05T08:24:02.972Z,31.82
2022-08-05T08:26:07.894Z,31.33
2022-08-05T08:28:37.382Z,31.65
2022-08-05T08:31:25.328Z,31.50
2022-08-05T08:33:57.927Z,31.45
2022-08-05T08:36:38.967Z,31.51
2022-08-05T08:39:15.430Z,31.93
2022-08-05T08:41:59.486Z,32.18
2022-08-05T08:45:20.710Z,32.10
2022-08-05T08:48:05.722Z,31.98
2022-08-05T08:50:33.073Z,32.14
2022-08-05T08:53:08.195Z,32.02
2022-08-05T08:56:04.014Z,32.15
2022-08-05T08:58:43.370Z,32.28
2022-08-05T09:01:16.217Z,32.25
2022-08-05T09:03:45.931Z,32.01
2022-08-05T09:06:18.506Z,32.07
2022-08-05T09:08:48.569Z,31.95
2022-08-05T09:11:16.016Z,32.24
2022-08-05T09:14:00.838Z,32.50
2022-08-05T09:16:33.299Z,32.62
2022-08-05T09:19:01.461Z,32.63
2022-08-05T09:22:21.771Z,32.74
2022-08-05T09:24:26.681Z,32.87
2022-08-05T09:26:57.001Z,32.91
2022-08-05T09:29:47.696Z,32.82
2022-08-05T09:32:51.208Z,32.87
2022-08-05T09:35:26.705Z,32.48
2022-08-05T09:38:17.720Z,32.31
2022-08-05T09:40:53.687Z,32.30
2022-08-05T09:43:40.526Z,32.36
2022-08-05T09:46:27.508Z,32.48
2022-08-05T09:49:06.779Z,32.41
2022-08-05T09:51:39.993Z,32.62
2022-08-05T09:54:10.897Z,32.68
2022-08-05T09:56:48.339Z,32.71
2022-08-05T09:59:27.425Z,32.92
2022-08-05T10:01:57.797Z,32.83
2022-08-05T10:04:35.084Z,33.02
2022-08-05T10:07:19.659Z,33.08
2022-08-05T10:10:14.125Z,32.86
2022-08-05T10:12:50.014Z,33.04
2022-08-05T10:15:20.472Z,32.65
2022-08-05T10:18:06.048Z,32.71
2022-08-05T10:20:36.361Z,32.71
2022-08-05T10:23:04.375Z,32.80
2022-08-05T10:25:36.317Z,32.98
2022-08-05T10:28:16.819Z,33.18
2022-08-05T10:32:49.301Z,33.12
2022-08-05T10:33:35.340Z,33.12
2022-08-05T10:36:04.734Z,33.14
2022-08-05T10:38:35.933Z,33.29
2022-08-05T10:41:13.845Z,33.14
2022-08-05T10:44:05.579Z,32.94
2022-08-05T10:46:50.692Z,32.78
2022-08-05T10:49:26.951Z,32.68
2022-08-05T10:52:02.548Z,32.75
2022-08-05T10:55:02.368Z,32.25
2022-08-05T10:57:33.825Z,32.28
2022-08-05T11:00:13.336Z,32.46
2022-08-05T11:03:24.216Z,32.34
2022-08-05T11:06:08.494Z,32.26
2022-08-05T11:09:02.004Z,32.37
2022-08-05T11:11:44.244Z,32.66
2022-08-05T11:14:13.513Z,32.73
2022-08-05T11:16:47.678Z,32.76
2022-08-05T11:20:11.016Z,32.70
2022-08-05T11:22:42.356Z,32.60
2022-08-05T11:26:04.904Z,32.59
2022-08-05T11:28:17.275Z,32.60
2022-08-05T11:30:58.231Z,32.79
2022-08-05T11:33:26.076Z,32.94
2022-08-05T11:36:12.261Z,33.08
2022-08-05T11:38:45.412Z,33.10
2022-08-05T11:41:58.330Z,33.18
2022-08-05T11:44:11.081Z,33.14
2022-08-05T11:47:09.466Z,33.26
2022-08-05T11:49:43.046Z,33.06
2022-08-05T11:52:13.314Z,33.07
2022-08-05T11:54:41.451Z,33.00
2022-08-05T11:57:25.489Z,33.05
2022-08-05T11:59:58.453Z,32.76
2022-08-05T12:02:31.228Z,32.89
2022-08-05T12:05:00.921Z,32.99
2022-08-05T12:08:10.329Z,32.99
2022-08-05T12:10:21.397Z,33.06
2022-08-05T12:12:59.367Z,32.95
2022-08-05T12:15:38.399Z,32.92
2022-08-05T12:18:11.977Z,33.02
2022-08-05T12:20:39.871Z,33.00
2022-08-05T12:23:09.925Z,32.93
2022-08-05T12:25:50.493Z,33.00
2022-08-05T12:28:31.036Z,33.03
2022-08-05T12:31:02.214Z,33.08
2022-08-05T12:33:36.545Z,33.10
2022-08-05T12:36:07.207Z,33.03
2022-08-05T12:38:37.333Z,32.92
2022-08-05T12:41:12.299Z,32.95
2022-08-05T12:43:51.608Z,32.86
2022-08-05T12:46:29.525Z,32.87
2022-08-05T12:49:13.862Z,32.91
2022-08-05T12:52:13.116Z,33.05
2022-08-05T12:54:37.465Z,32.99
2022-08-05T12:57:09.613Z,32.96
2022-08-05T13:01:57.739Z,32.65
2022-08-05T13:02:41.871Z,32.41
2022-08-05T13:05:14.316Z,32.31
2022-08-05T13:08:00.697Z,32.14
2022-08-05T13:10:31.217Z,32.07
2022-08-05T13:12:58.821Z,32.02
2022-08-05T13:15:42.131Z,32.03
2022-08-05T13:18:19.607Z,32.23
2022-08-05T13:20:50.400Z,32.37
2022-08-05T13:23:22.556Z,32.48
2022-08-05T13:25:59.195Z,32.56
2022-08-05T13:28:32.107Z,32.54
2022-08-05T13:31:00.102Z,32.61
2022-08-05T13:34:21.798Z,32.77
2022-08-05T13:36:25.980Z,32.83
2022-08-05T13:38:54.284Z,32.94
2022-08-05T13:41:23.900Z,32.94
2022-08-05T13:44:04.173Z,32.90
2022-08-05T13:46:50.888Z,32.98
2022-08-05T13:49:19.095Z,33.03
2022-08-05T13:51:49.604Z,33.01
2022-08-05T13:54:21.185Z,33.03
2022-08-05T13:56:53.096Z,32.85
2022-08-05T13:59:24.873Z,32.81
2022-08-05T14:02:00.143Z,32.84
2022-08-05T14:04:40.878Z,33.02
2022-08-05T14:07:56.527Z,32.98
2022-08-05T14:10:03.031Z,32.95
2022-08-05T14:12:32.108Z,32.92
2022-08-05T14:15:00.216Z,33.01
2022-08-05T14:17:30.916Z,33.00
2022-08-05T14:20:04.639Z,33.06
2022-08-05T14:22:35.189Z,33.02
2022-08-05T14:25:06.437Z,33.03
2022-08-05T14:27:51.336Z,33.01
2022-08-05T14:30:20.807Z,32.99
2022-08-05T14:32:49.033Z,33.03
2022-08-05T14:35:20.635Z,32.97
2022-08-05T14:37:55.008Z,33.01
2022-08-05T14:40:24.248Z,32.99
2022-08-05T14:42:54.784Z,33.00
2022-08-05T14:45:23.213Z,32.98
2022-08-05T14:48:05.505Z,33.01
2022-08-05T14:50:40.614Z,32.86
2022-08-05T14:53:08.225Z,32.79
2022-08-05T14:55:39.326Z,32.81
2022-08-05T14:58:10.872Z,32.75
2022-08-05T15:00:59.664Z,32.79
2022-08-05T15:03:39.336Z,32.94
2022-08-05T15:06:15.202Z,33.02
2022-08-05T15:08:59.810Z,33.02
2022-08-05T15:11:50.860Z,33.09
2022-08-05T15:14:33.548Z,33.09
2022-08-05T15:17:04.158Z,33.07
2022-08-05T15:19:32.057Z,32.95
2022-08-05T15:22:00.306Z,32.84
2022-08-05T15:24:31.274Z,32.75
2022-08-05T15:27:03.397Z,32.66
2022-08-05T15:29:41.673Z,32.65
2022-08-05T15:32:09.522Z,32.62
2022-08-05T15:34:39.835Z,32.55
2022-08-05T15:37:15.508Z,32.59
2022-08-05T15:41:00.212Z,32.52
2022-08-05T15:42:55.584Z,32.47
2022-08-05T15:45:37.940Z,32.43
2022-08-05T15:48:14.164Z,32.51
2022-08-05T15:50:46.313Z,32.46
2022-08-05T15:53:14.476Z,32.42
2022-08-05T15:56:02.818Z,32.43
2022-08-05T15:58:35.698Z,32.52
2022-08-05T16:01:16.332Z,32.43
2022-08-05T16:03:48.740Z,32.45
2022-08-05T16:06:20.345Z,32.35
2022-08-05T16:08:50.250Z,32.46
2022-08-05T16:11:21.118Z,32.40
2022-08-05T16:14:09.046Z,32.28
2022-08-05T16:16:36.487Z,32.36
2022-08-05T16:19:04.718Z,32.31
2022-08-05T16:21:58.401Z,32.30
2022-08-05T16:24:41.707Z,32.29
2022-08-05T16:27:16.433Z,32.19
2022-08-05T16:29:50.200Z,32.03
2022-08-05T16:32:29.429Z,32.19
2022-08-05T16:35:00.110Z,32.14
2022-08-05T16:38:03.006Z,32.18
2022-08-05T16:40:26.612Z,32.31
2022-08-05T16:43:00.326Z,32.42
2022-08-05T16:46:03.673Z,32.45
2022-08-05T16:48:25.817Z,32.35
2022-08-05T16:51:01.806Z,32.15
2022-08-05T16:54:05.649Z,32.05
2022-08-05T16:56:23.514Z,31.90
2022-08-05T16:58:53.723Z,31.79
2022-08-05T17:01:21.349Z,31.69
2022-08-05T17:03:51.681Z,31.64
2022-08-05T17:06:19.439Z,31.51
2022-08-05T17:08:53.077Z,31.44
2022-08-05T17:11:25.267Z,31.42
2022-08-05T17:14:06.201Z,31.42
2022-08-05T17:16:40.253Z,31.38
2022-08-05T17:19:09.396Z,31.35
2022-08-05T17:21:40.136Z,31.29
2022-08-05T17:24:20.510Z,31.20
2022-08-05T17:27:00.091Z,31.08
2022-08-05T17:29:39.892Z,31.02
2022-08-05T17:32:11.317Z,30.95
2022-08-05T17:34:44.579Z,30.87
2022-08-05T17:37:40.897Z,30.79
2022-08-05T17:40:12.286Z,30.69
2022-08-05T17:42:49.677Z,30.61
2022-08-05T17:45:23.187Z,30.50
2022-08-05T17:47:55.528Z,30.40
2022-08-05T17:50:32.333Z,30.34
2022-08-05T17:53:04.682Z,30.27
2022-08-05T17:55:38.468Z,30.18
2022-08-05T17:58:12.590Z,30.09
2022-08-05T18:00:45.146Z,30.05
2022-08-05T18:06:12.098Z,29.86
2022-08-05T18:08:45.902Z,29.89
2022-08-05T18:11:23.996Z,29.86
2022-08-05T18:13:53.896Z,29.69
2022-08-05T18:16:21.566Z,29.71
2022-08-05T18:18:50.032Z,29.74
2022-08-05T18:21:21.145Z,29.71
2022-08-05T18:23:53.872Z,29.67
2022-08-05T18:26:29.535Z,29.65
2022-08-05T18:29:01.447Z,29.52
2022-08-05T18:31:32.916Z,29.47
2022-08-05T18:34:03.754Z,29.44
2022-08-05T18:36:33.979Z,29.40
2022-08-05T18:39:09.679Z,29.30
2022-08-05T18:41:54.170Z,29.26
2022-08-05T18:44:34.970Z,29.23
2022-08-05T18:47:19.878Z,29.22
2022-08-05T18:49:58.153Z,29.17
2022-08-05T18:52:33.140Z,29.08
2022-08-05T18:55:02.311Z,29.05
2022-08-05T18:57:42.936Z,29.05
2022-08-05T19:00:20.823Z,29.00
2022-08-05T19:02:52.700Z,28.94
2022-08-05T19:06:12.383Z,28.87
2022-08-05T19:08:08.044Z,28.90
2022-08-05T19:10:46.488Z,28.87
2022-08-05T19:13:17.029Z,28.84
2022-08-05T19:15:57.274Z,28.87
2022-08-05T19:18:31.935Z,28.81
2022-08-05T19:20:59.372Z,28.80
2022-08-05T19:24:05.862Z,28.69
2022-08-05T19:26:21.726Z,28.72
2022-08-05T19:28:49.068Z,28.76
2022-08-05T19:31:21.327Z,28.76
2022-08-05T19:33:56.500Z,28.69
2022-08-05T19:36:29.332Z,28.71
2022-08-05T19:39:01.054Z,28.71
2022-08-05T19:42:06.631Z,28.62
2022-08-05T19:44:29.500Z,28.60
2022-08-05T19:46:58.282Z,28.60
2022-08-05T19:49:28.745Z,28.59
2022-08-05T19:52:08.523Z,28.56
2022-08-05T19:54:49.867Z,28.56
2022-08-05T19:57:18.648Z,28.56
2022-08-05T20:00:13.621Z,28.51
2022-08-05T20:02:45.018Z,28.43
2022-08-05T20:05:24.161Z,28.47
2022-08-05T20:07:59.168Z,28.43
2022-08-05T20:10:29.229Z,28.31
2022-08-05T20:12:57.565Z,28.22
2022-08-05T20:15:51.996Z,28.24
2022-08-05T20:18:32.665Z,28.20
2022-08-05T20:21:00.142Z,28.11
2022-08-05T20:23:40.449Z,28.13
2022-08-05T20:26:18.029Z,28.09
2022-08-05T20:28:46.216Z,27.98
2022-08-05T20:31:17.100Z,27.87
2022-08-05T20:33:44.918Z,27.80
2022-08-05T20:36:16.250Z,27.75
2022-08-05T20:38:53.805Z,27.68
2022-08-05T20:41:44.161Z,27.72
2022-08-05T20:44:29.497Z,27.63
2022-08-05T20:47:01.876Z,27.56
2022-08-05T20:49:37.943Z,27.53
2022-08-05T20:52:07.928Z,27.42
2022-08-05T20:54:42.770Z,27.50
2022-08-05T20:57:11.079Z,27.59
2022-08-05T21:00:10.706Z,27.54
2022-08-05T21:02:30.132Z,27.51
2022-08-05T21:04:57.458Z,27.38
2022-08-05T21:07:25.633Z,27.40
2022-08-05T21:10:15.332Z,27.20
2022-08-05T21:12:57.922Z,27.13
2022-08-05T21:15:33.753Z,27.05
2022-08-05T21:18:03.769Z,27.00
2022-08-05T21:20:34.858Z,27.00
2022-08-05T21:23:04.794Z,26.94
2022-08-05T21:25:38.003Z,26.85
2022-08-05T21:28:05.213Z,26.79
2022-08-05T21:30:33.084Z,26.77
2022-08-05T21:33:10.876Z,26.80
2022-08-05T21:35:58.606Z,26.73
2022-08-05T21:38:27.009Z,26.70
2022-08-05T21:40:55.344Z,26.75
2022-08-05T21:43:24.767Z,26.71
2022-08-05T21:45:57.381Z,26.76
2022-08-05T21:48:24.985Z,26.71
2022-08-05T21:50:57.366Z,26.68
2022-08-05T21:53:28.042Z,26.70
2022-08-05T21:56:01.198Z,26.68
2022-08-05T21:58:42.214Z,26.72
2022-08-05T22:01:24.227Z,26.61
2022-08-05T22:03:53.655Z,26.61
2022-08-05T22:06:22.382Z,26.60
2022-08-05T22:08:52.209Z,26.51
2022-08-05T22:11:35.252Z,26.49
2022-08-05T22:14:34.613Z,26.44
2022-08-05T22:16:56.960Z,26.37
2022-08-05T22:20:00.423Z,26.33
2022-08-05T22:22:27.731Z,26.27
2022-08-05T22:25:00.213Z,26.25
2022-08-05T22:28:08.772Z,26.29
2022-08-05T22:30:22.199Z,26.15
2022-08-05T22:32:53.578Z,26.22
2022-08-05T22:35:23.483Z,26.25
2022-08-05T22:37:59.353Z,26.09
2022-08-05T22:40:27.790Z,25.98
2022-08-05T22:42:58.475Z,25.95
2022-08-05T22:45:26.097Z,26.02
2022-08-05T22:47:57.031Z,26.12
2022-08-05T22:50:31.028Z,25.93
2022-08-05T22:52:58.928Z,25.89
2022-08-05T22:55:26.669Z,25.81
2022-08-05T22:58:11.664Z,25.80
2022-08-05T23:00:44.890Z,25.77
2022-08-05T23:03:15.801Z,25.67
2022-08-05T23:05:43.646Z,25.75
2022-08-05T23:08:14.289Z,25.71
2022-08-05T23:10:42.197Z,25.58
2022-08-05T23:13:12.296Z,25.52
2022-08-05T23:15:46.095Z,25.58
2022-08-05T23:18:23.348Z,25.69
2022-08-05T23:20:50.614Z,25.62
2022-08-05T23:23:18.351Z,25.51
2022-08-05T23:25:52.004Z,25.56
2022-08-05T23:28:29.227Z,25.49
2022-08-05T23:31:16.374Z,25.58
2022-08-05T23:34:04.820Z,25.57
2022-08-05T23:36:39.848Z,25.62
2022-08-05T23:39:23.779Z,25.67
2022-08-05T23:42:02.945Z,25.68
2022-08-05T23:44:39.003Z,25.70
2022-08-05T23:47:14.400Z,25.61
2022-08-05T23:49:43.621Z,25.67
2022-08-05T23:52:13.275Z,25.76
2022-08-05T23:54:45.342Z,25.79
2022-08-05T23:57:21.406Z,25.74
